sensor_id;sensor_type;location;lat;lon;timestamp;pressure;altitude;pressure_sealevel;temperature;humidity
78337;BME280;67610;51.588;7.002;2023-10-13T00:00:28;100573.28;;;18.84;82.52
78337;BME280;67610;51.588;7.002;2023-10-13T00:03:02;100568.78;;;18.85;82.13
78337;BME280;67610;51.588;7.002;2023-10-13T00:05:29;100566.75;;;18.87;81.82
78337;BME280;67610;51.588;7.002;2023-10-13T00:07:59;100564.06;;;18.87;82.17
78337;BME280;67610;51.588;7.002;2023-10-13T00:10:35;100556.25;;;18.85;82.25
78337;BME280;67610;51.588;7.002;2023-10-13T00:13:00;100561.41;;;18.87;82.15
78337;BME280;67610;51.588;7.002;2023-10-13T00:15:47;100558.13;;;18.91;81.84
78337;BME280;67610;51.588;7.002;2023-10-13T00:18:29;100550.13;;;18.91;81.53
78337;BME280;67610;51.588;7.002;2023-10-13T00:21:02;100541.53;;;18.89;81.72
78337;BME280;67610;51.588;7.002;2023-10-13T00:23:39;100542.94;;;18.85;82.36
78337;BME280;67610;51.588;7.002;2023-10-13T00:26:04;100540.09;;;18.87;81.90
78337;BME280;67610;51.588;7.002;2023-10-13T00:28:34;100528.59;;;18.86;82.05
78337;BME280;67610;51.588;7.002;2023-10-13T00:31:23;100529.00;;;18.96;81.77
78337;BME280;67610;51.588;7.002;2023-10-13T00:33:48;100527.13;;;18.97;81.81
78337;BME280;67610;51.588;7.002;2023-10-13T00:36:16;100531.84;;;18.95;81.31
78337;BME280;67610;51.588;7.002;2023-10-13T00:38:45;100519.59;;;18.87;81.81
78337;BME280;67610;51.588;7.002;2023-10-13T00:41:14;100518.16;;;18.85;82.16
78337;BME280;67610;51.588;7.002;2023-10-13T00:43:47;100519.56;;;18.80;82.79
78337;BME280;67610;51.588;7.002;2023-10-13T00:46:36;100518.53;;;18.88;81.84
78337;BME280;67610;51.588;7.002;2023-10-13T00:49:04;100513.44;;;18.87;81.70
78337;BME280;67610;51.588;7.002;2023-10-13T00:51:30;100512.38;;;18.88;81.80
78337;BME280;67610;51.588;7.002;2023-10-13T00:54:08;100511.59;;;18.87;82.16
78337;BME280;67610;51.588;7.002;2023-10-13T00:56:43;100508.09;;;18.87;82.00
78337;BME280;67610;51.588;7.002;2023-10-13T00:59:17;100496.84;;;18.85;82.01
78337;BME280;67610;51.588;7.002;2023-10-13T01:01:42;100495.78;;;18.86;82.03
78337;BME280;67610;51.588;7.002;2023-10-13T01:04:10;100494.56;;;18.81;81.94
78337;BME280;67610;51.588;7.002;2023-10-13T01:06:38;100490.25;;;18.80;81.87
78337;BME280;67610;51.588;7.002;2023-10-13T01:09:09;100495.59;;;18.80;82.34
78337;BME280;67610;51.588;7.002;2023-10-13T01:11:48;100496.41;;;18.88;82.15
78337;BME280;67610;51.588;7.002;2023-10-13T01:14:21;100493.94;;;18.86;81.99
78337;BME280;67610;51.588;7.002;2023-10-13T01:16:48;100486.38;;;18.83;81.95
78337;BME280;67610;51.588;7.002;2023-10-13T01:19:19;100492.53;;;18.83;81.93
78337;BME280;67610;51.588;7.002;2023-10-13T01:21:50;100489.84;;;18.83;81.96
78337;BME280;67610;51.588;7.002;2023-10-13T01:24:19;100472.22;;;18.82;82.17
78337;BME280;67610;51.588;7.002;2023-10-13T01:26:48;100479.41;;;18.82;81.99
78337;BME280;67610;51.588;7.002;2023-10-13T01:29:16;100477.13;;;18.86;81.77
78337;BME280;67610;51.588;7.002;2023-10-13T01:31:45;100472.63;;;18.86;81.58
78337;BME280;67610;51.588;7.002;2023-10-13T01:34:16;100467.94;;;18.81;81.87
78337;BME280;67610;51.588;7.002;2023-10-13T01:36:51;100466.69;;;18.84;82.16
78337;BME280;67610;51.588;7.002;2023-10-13T01:39:17;100471.81;;;18.86;81.78
78337;BME280;67610;51.588;7.002;2023-10-13T01:41:44;100460.97;;;18.87;81.66
78337;BME280;67610;51.588;7.002;2023-10-13T01:44:09;100460.31;;;18.85;81.79
78337;BME280;67610;51.588;7.002;2023-10-13T01:46:40;100458.47;;;18.86;81.87
78337;BME280;67610;51.588;7.002;2023-10-13T01:49:07;100452.75;;;18.89;82.34
78337;BME280;67610;51.588;7.002;2023-10-13T01:51:33;100459.91;;;18.88;82.42
78337;BME280;67610;51.588;7.002;2023-10-13T01:53:58;100445.31;;;18.97;81.72
78337;BME280;67610;51.588;7.002;2023-10-13T01:56:24;100442.69;;;18.91;81.85
78337;BME280;67610;51.588;7.002;2023-10-13T01:58:50;100442.28;;;18.94;82.41
78337;BME280;67610;51.588;7.002;2023-10-13T02:01:15;100441.84;;;18.97;81.98
78337;BME280;67610;51.588;7.002;2023-10-13T02:03:56;100430.78;;;18.93;82.11
78337;BME280;67610;51.588;7.002;2023-10-13T02:06:36;100434.69;;;18.91;82.08
78337;BME280;67610;51.588;7.002;2023-10-13T02:09:07;100422.38;;;18.90;82.31
78337;BME280;67610;51.588;7.002;2023-10-13T02:11:43;100419.72;;;18.90;82.42
78337;BME280;67610;51.588;7.002;2023-10-13T02:14:11;100417.03;;;18.90;82.49
78337;BME280;67610;51.588;7.002;2023-10-13T02:16:38;100419.72;;;18.90;82.25
78337;BME280;67610;51.588;7.002;2023-10-13T02:19:04;100414.00;;;18.86;82.44
78337;BME280;67610;51.588;7.002;2023-10-13T02:21:31;100409.06;;;18.90;82.44
78337;BME280;67610;51.588;7.002;2023-10-13T02:23:58;100399.81;;;18.92;82.14
78337;BME280;67610;51.588;7.002;2023-10-13T02:26:31;100404.72;;;18.95;82.22
78337;BME280;67610;51.588;7.002;2023-10-13T02:29:01;100404.72;;;18.95;82.30
78337;BME280;67610;51.588;7.002;2023-10-13T02:31:34;100390.19;;;18.91;82.98
78337;BME280;67610;51.588;7.002;2023-10-13T02:34:00;100392.47;;;18.88;82.64
78337;BME280;67610;51.588;7.002;2023-10-13T02:36:26;100387.13;;;18.88;82.80
78337;BME280;67610;51.588;7.002;2023-10-13T02:39:23;100376.28;;;18.89;82.66
78337;BME280;67610;51.588;7.002;2023-10-13T02:41:53;100375.22;;;18.90;82.61
78337;BME280;67610;51.588;7.002;2023-10-13T02:44:20;100365.38;;;18.91;82.24
78337;BME280;67610;51.588;7.002;2023-10-13T02:46:56;100371.50;;;18.98;82.24
78337;BME280;67610;51.588;7.002;2023-10-13T02:49:22;100373.56;;;18.96;82.20
78337;BME280;67610;51.588;7.002;2023-10-13T02:51:50;100365.16;;;18.92;82.37
78337;BME280;67610;51.588;7.002;2023-10-13T02:54:18;100368.06;;;18.91;82.86
78337;BME280;67610;51.588;7.002;2023-10-13T02:56:44;100361.72;;;18.92;82.76
78337;BME280;67610;51.588;7.002;2023-10-13T02:59:29;100360.66;;;18.93;82.77
78337;BME280;67610;51.588;7.002;2023-10-13T03:02:14;100354.31;;;18.94;82.31
78337;BME280;67610;51.588;7.002;2023-10-13T03:04:55;100350.41;;;18.90;83.29
78337;BME280;67610;51.588;7.002;2023-10-13T03:07:39;100347.75;;;18.90;82.77
78337;BME280;67610;51.588;7.002;2023-10-13T03:10:08;100346.97;;;18.89;82.81
78337;BME280;67610;51.588;7.002;2023-10-13T03:12:40;100346.13;;;18.89;82.59
78337;BME280;67610;51.588;7.002;2023-10-13T03:15:06;100340.38;;;18.92;83.07
78337;BME280;67610;51.588;7.002;2023-10-13T03:17:40;100339.13;;;18.94;83.00
78337;BME280;67610;51.588;7.002;2023-10-13T03:20:18;100335.66;;;18.94;82.71
78337;BME280;67610;51.588;7.002;2023-10-13T03:23:03;100329.28;;;18.95;82.75
78337;BME280;67610;51.588;7.002;2023-10-13T03:25:34;100315.13;;;18.94;83.13
78337;BME280;67610;51.588;7.002;2023-10-13T03:28:08;100322.47;;;18.99;83.13
78337;BME280;67610;51.588;7.002;2023-10-13T03:30:37;100312.03;;;18.97;82.88
78337;BME280;67610;51.588;7.002;2023-10-13T03:33:05;100310.44;;;18.96;83.66
78337;BME280;67610;51.588;7.002;2023-10-13T03:35:36;100307.75;;;18.96;83.35
78337;BME280;67610;51.588;7.002;2023-10-13T03:38:09;100313.69;;;18.98;83.63
78337;BME280;67610;51.588;7.002;2023-10-13T03:40:49;100317.78;;;19.01;83.37
78337;BME280;67610;51.588;7.002;2023-10-13T03:43:35;100301.09;;;19.12;82.66
78337;BME280;67610;51.588;7.002;2023-10-13T03:46:10;100297.38;;;19.13;82.98
78337;BME280;67610;51.588;7.002;2023-10-13T03:48:35;100301.53;;;19.09;83.17
78337;BME280;67610;51.588;7.002;2023-10-13T03:51:20;100293.75;;;19.07;82.82
78337;BME280;67610;51.588;7.002;2023-10-13T03:53:46;100281.66;;;19.05;83.03
78337;BME280;67610;51.588;7.002;2023-10-13T03:56:21;100282.25;;;19.07;82.98
78337;BME280;67610;51.588;7.002;2023-10-13T03:58:57;100264.19;;;19.09;83.18
78337;BME280;67610;51.588;7.002;2023-10-13T04:01:26;100265.84;;;19.10;83.43
78337;BME280;67610;51.588;7.002;2023-10-13T04:04:11;100255.00;;;19.05;83.58
78337;BME280;67610;51.588;7.002;2023-10-13T04:06:38;100250.50;;;19.05;83.60
78337;BME280;67610;51.588;7.002;2023-10-13T04:09:16;100248.03;;;19.04;83.90
78337;BME280;67610;51.588;7.002;2023-10-13T04:11:58;100247.22;;;19.03;83.53
78337;BME280;67610;51.588;7.002;2023-10-13T04:14:44;100240.63;;;19.06;83.77
78337;BME280;67610;51.588;7.002;2023-10-13T04:17:28;100228.72;;;19.08;83.74
78337;BME280;67610;51.588;7.002;2023-10-13T04:19:56;100230.97;;;19.11;83.41
78337;BME280;67610;51.588;7.002;2023-10-13T04:22:34;100225.41;;;19.13;83.42
78337;BME280;67610;51.588;7.002;2023-10-13T04:25:17;100226.03;;;19.15;83.37
78337;BME280;67610;51.588;7.002;2023-10-13T04:28:02;100229.13;;;19.12;83.10
78337;BME280;67610;51.588;7.002;2023-10-13T04:30:52;100218.03;;;19.15;83.33
78337;BME280;67610;51.588;7.002;2023-10-13T04:36:20;100210.06;;;19.08;83.13
78337;BME280;67610;51.588;7.002;2023-10-13T04:38:53;100202.88;;;19.09;83.59
78337;BME280;67610;51.588;7.002;2023-10-13T04:41:31;100200.63;;;19.12;83.21
78337;BME280;67610;51.588;7.002;2023-10-13T04:44:03;100192.22;;;19.09;83.49
78337;BME280;67610;51.588;7.002;2023-10-13T04:46:50;100187.28;;;19.12;83.45
78337;BME280;67610;51.588;7.002;2023-10-13T04:49:15;100190.97;;;19.11;83.23
78337;BME280;67610;51.588;7.002;2023-10-13T04:52:00;100174.59;;;19.08;83.35
78337;BME280;67610;51.588;7.002;2023-10-13T04:54:45;100184.22;;;19.09;83.64
78337;BME280;67610;51.588;7.002;2023-10-13T04:57:23;100179.06;;;19.14;83.43
78337;BME280;67610;51.588;7.002;2023-10-13T05:00:01;100175.72;;;19.18;83.42
78337;BME280;67610;51.588;7.002;2023-10-13T05:05:07;100175.38;;;19.15;83.41
78337;BME280;67610;51.588;7.002;2023-10-13T05:07:42;100164.25;;;19.18;83.35
78337;BME280;67610;51.588;7.002;2023-10-13T05:10:26;100148.84;;;19.20;83.46
78337;BME280;67610;51.588;7.002;2023-10-13T05:13:10;100137.59;;;19.18;83.49
78337;BME280;67610;51.588;7.002;2023-10-13T05:15:54;100135.81;;;19.12;84.49
78337;BME280;67610;51.588;7.002;2023-10-13T05:18:38;100138.03;;;19.15;84.02
78337;BME280;67610;51.588;7.002;2023-10-13T05:21:22;100140.09;;;19.13;83.92
78337;BME280;67610;51.588;7.002;2023-10-13T05:24:06;100143.97;;;19.17;83.92
78337;BME280;67610;51.588;7.002;2023-10-13T05:26:52;100134.31;;;19.16;84.52
78337;BME280;67610;51.588;7.002;2023-10-13T05:29:40;100127.38;;;19.15;84.49
78337;BME280;67610;51.588;7.002;2023-10-13T05:32:25;100124.84;;;19.20;84.42
78337;BME280;67610;51.588;7.002;2023-10-13T05:35:09;100123.91;;;19.32;84.10
78337;BME280;67610;51.588;7.002;2023-10-13T05:37:53;100121.47;;;19.31;84.03
78337;BME280;67610;51.588;7.002;2023-10-13T05:40:37;100133.59;;;19.27;84.45
78337;BME280;67610;51.588;7.002;2023-10-13T05:43:21;100130.34;;;19.25;84.86
78337;BME280;67610;51.588;7.002;2023-10-13T05:46:05;100130.72;;;19.28;84.47
78337;BME280;67610;51.588;7.002;2023-10-13T05:48:49;100134.19;;;19.29;85.00
78337;BME280;67610;51.588;7.002;2023-10-13T05:51:28;100133.16;;;19.30;84.73
78337;BME280;67610;51.588;7.002;2023-10-13T05:54:11;100138.28;;;19.31;84.75
78337;BME280;67610;51.588;7.002;2023-10-13T05:56:50;100145.44;;;19.37;84.54
78337;BME280;67610;51.588;7.002;2023-10-13T05:59:36;100149.06;;;19.43;84.72
78337;BME280;67610;51.588;7.002;2023-10-13T06:02:21;100134.19;;;19.35;84.75
78337;BME280;67610;51.588;7.002;2023-10-13T06:05:10;100160.13;;;19.46;84.61
78337;BME280;67610;51.588;7.002;2023-10-13T06:07:54;100155.66;;;19.40;84.62
78337;BME280;67610;51.588;7.002;2023-10-13T06:10:39;100134.78;;;19.37;84.68
78337;BME280;67610;51.588;7.002;2023-10-13T06:13:23;100144.00;;;19.35;85.29
78337;BME280;67610;51.588;7.002;2023-10-13T06:16:15;100131.31;;;19.30;85.51
78337;BME280;67610;51.588;7.002;2023-10-13T06:18:59;100125.13;;;19.36;85.08
78337;BME280;67610;51.588;7.002;2023-10-13T06:21:44;100123.88;;;19.39;84.84
78337;BME280;67610;51.588;7.002;2023-10-13T06:24:28;100105.63;;;19.36;85.04
78337;BME280;67610;51.588;7.002;2023-10-13T06:27:12;100090.66;;;19.35;85.41
78337;BME280;67610;51.588;7.002;2023-10-13T06:29:57;100098.84;;;19.40;85.23
78337;BME280;67610;51.588;7.002;2023-10-13T06:32:23;100108.63;;;19.46;84.79
78337;BME280;67610;51.588;7.002;2023-10-13T06:34:55;100100.09;;;19.37;85.12
78337;BME280;67610;51.588;7.002;2023-10-13T06:37:24;100108.69;;;19.39;85.42
78337;BME280;67610;51.588;7.002;2023-10-13T06:40:09;100098.06;;;19.33;85.50
78337;BME280;67610;51.588;7.002;2023-10-13T06:42:54;100093.19;;;19.48;84.76
78337;BME280;67610;51.588;7.002;2023-10-13T06:45:28;100096.47;;;19.50;84.50
78337;BME280;67610;51.588;7.002;2023-10-13T06:47:55;100088.53;;;19.43;84.84
78337;BME280;67610;51.588;7.002;2023-10-13T06:50:23;100088.69;;;19.48;84.97
78337;BME280;67610;51.588;7.002;2023-10-13T06:52:54;100089.34;;;19.44;85.08
78337;BME280;67610;51.588;7.002;2023-10-13T06:55:20;100084.47;;;19.41;85.12
78337;BME280;67610;51.588;7.002;2023-10-13T06:57:53;100095.88;;;19.48;84.67
78337;BME280;67610;51.588;7.002;2023-10-13T07:00:24;100097.03;;;19.52;84.35
78337;BME280;67610;51.588;7.002;2023-10-13T07:02:55;100091.78;;;19.45;84.58
78337;BME280;67610;51.588;7.002;2023-10-13T07:05:36;100095.44;;;19.51;84.88
78337;BME280;67610;51.588;7.002;2023-10-13T07:08:07;100102.69;;;19.62;84.31
78337;BME280;67610;51.588;7.002;2023-10-13T07:10:32;100092.09;;;19.56;84.39
78337;BME280;67610;51.588;7.002;2023-10-13T07:13:11;100100.25;;;19.61;84.20
78337;BME280;67610;51.588;7.002;2023-10-13T07:15:38;100099.25;;;19.73;83.61
78337;BME280;67610;51.588;7.002;2023-10-13T07:18:13;100104.97;;;19.77;83.78
78337;BME280;67610;51.588;7.002;2023-10-13T07:20:40;100096.97;;;19.77;83.80
78337;BME280;67610;51.588;7.002;2023-10-13T07:23:12;100095.88;;;19.96;83.21
78337;BME280;67610;51.588;7.002;2023-10-13T07:25:51;100094.03;;;19.96;83.49
78337;BME280;67610;51.588;7.002;2023-10-13T07:28:17;100094.31;;;20.06;82.86
78337;BME280;67610;51.588;7.002;2023-10-13T07:30:42;100092.25;;;20.08;83.00
78337;BME280;67610;51.588;7.002;2023-10-13T07:33:16;100089.13;;;20.11;82.56
78337;BME280;67610;51.588;7.002;2023-10-13T07:35:48;100082.28;;;20.15;82.12
78337;BME280;67610;51.588;7.002;2023-10-13T07:38:19;100079.38;;;20.17;82.02
78337;BME280;67610;51.588;7.002;2023-10-13T07:40:46;100083.03;;;20.23;82.25
78337;BME280;67610;51.588;7.002;2023-10-13T07:43:18;100079.34;;;20.35;82.01
78337;BME280;67610;51.588;7.002;2023-10-13T07:45:47;100076.69;;;20.35;81.68
78337;BME280;67610;51.588;7.002;2023-10-13T07:48:19;100078.78;;;20.45;81.56
78337;BME280;67610;51.588;7.002;2023-10-13T07:51:03;100071.16;;;20.60;81.18
78337;BME280;67610;51.588;7.002;2023-10-13T07:53:32;100072.00;;;20.60;80.95
78337;BME280;67610;51.588;7.002;2023-10-13T07:56:01;100069.22;;;20.67;80.62
78337;BME280;67610;51.588;7.002;2023-10-13T07:58:31;100067.38;;;20.79;81.02
78337;BME280;67610;51.588;7.002;2023-10-13T08:00:59;100063.22;;;21.06;80.15
78337;BME280;67610;51.588;7.002;2023-10-13T08:03:35;100063.78;;;21.20;78.83
78337;BME280;67610;51.588;7.002;2023-10-13T08:06:08;100060.13;;;21.37;79.39
78337;BME280;67610;51.588;7.002;2023-10-13T08:08:38;100054.03;;;21.53;79.00
78337;BME280;67610;51.588;7.002;2023-10-13T08:11:11;100050.97;;;21.85;77.25
78337;BME280;67610;51.588;7.002;2023-10-13T08:13:43;100037.84;;;22.00;76.75
78337;BME280;67610;51.588;7.002;2023-10-13T08:16:12;100049.22;;;22.07;76.93
78337;BME280;67610;51.588;7.002;2023-10-13T08:18:47;100037.41;;;22.19;75.96
78337;BME280;67610;51.588;7.002;2023-10-13T08:21:15;100030.03;;;22.27;74.56
78337;BME280;67610;51.588;7.002;2023-10-13T08:23:44;100028.16;;;22.27;74.62
78337;BME280;67610;51.588;7.002;2023-10-13T08:26:19;100018.00;;;22.46;73.02
78337;BME280;67610;51.588;7.002;2023-10-13T08:29:04;100021.69;;;22.73;72.33
78337;BME280;67610;51.588;7.002;2023-10-13T08:31:50;100019.75;;;23.07;70.36
78337;BME280;67610;51.588;7.002;2023-10-13T08:34:35;100019.63;;;23.35;70.30
78337;BME280;67610;51.588;7.002;2023-10-13T08:37:07;100018.69;;;23.46;69.80
78337;BME280;67610;51.588;7.002;2023-10-13T08:42:36;100002.75;;;23.61;67.30
78337;BME280;67610;51.588;7.002;2023-10-13T08:45:07;99998.91;;;23.79;64.72
78337;BME280;67610;51.588;7.002;2023-10-13T08:47:51;99988.38;;;23.72;65.08
78337;BME280;67610;51.588;7.002;2023-10-13T08:50:21;99989.22;;;23.78;65.66
78337;BME280;67610;51.588;7.002;2023-10-13T08:53:07;99975.00;;;23.77;65.20
78337;BME280;67610;51.588;7.002;2023-10-13T08:55:53;99976.16;;;23.86;63.78
78337;BME280;67610;51.588;7.002;2023-10-13T09:06:50;99968.41;;;24.16;61.08
78337;BME280;67610;51.588;7.002;2023-10-13T09:09:25;99944.69;;;24.08;61.20
78337;BME280;67610;51.588;7.002;2023-10-13T09:14:44;99946.44;;;24.24;60.55
78337;BME280;67610;51.588;7.002;2023-10-13T09:17:25;99957.72;;;24.26;60.00
78337;BME280;67610;51.588;7.002;2023-10-13T09:20:05;99951.81;;;24.24;58.46
78337;BME280;67610;51.588;7.002;2023-10-13T09:22:51;99948.00;;;24.20;58.99
78337;BME280;67610;51.588;7.002;2023-10-13T09:25:32;99936.84;;;24.39;58.92
78337;BME280;67610;51.588;7.002;2023-10-13T09:28:00;99945.63;;;24.66;57.85
78337;BME280;67610;51.588;7.002;2023-10-13T09:30:26;99933.31;;;24.75;57.54
78337;BME280;67610;51.588;7.002;2023-10-13T09:33:00;99949.50;;;24.80;56.80
78337;BME280;67610;51.588;7.002;2023-10-13T09:35:43;99935.31;;;24.94;56.78
78337;BME280;67610;51.588;7.002;2023-10-13T09:38:09;99937.19;;;24.94;56.65
78337;BME280;67610;51.588;7.002;2023-10-13T09:40:37;99932.16;;;25.08;55.70
78337;BME280;67610;51.588;7.002;2023-10-13T09:43:11;99923.31;;;25.22;56.14
78337;BME280;67610;51.588;7.002;2023-10-13T09:45:40;99926.59;;;25.34;54.56
78337;BME280;67610;51.588;7.002;2023-10-13T09:48:38;99927.16;;;25.41;55.47
78337;BME280;67610;51.588;7.002;2023-10-13T09:51:15;99925.59;;;25.50;55.49
78337;BME280;67610;51.588;7.002;2023-10-13T09:53:55;99930.47;;;25.63;53.94
78337;BME280;67610;51.588;7.002;2023-10-13T09:56:35;99923.97;;;25.54;53.55
78337;BME280;67610;51.588;7.002;2023-10-13T09:59:19;99916.44;;;25.51;54.52
78337;BME280;67610;51.588;7.002;2023-10-13T10:01:45;99918.31;;;25.56;52.89
78337;BME280;67610;51.588;7.002;2023-10-13T10:04:18;99917.00;;;25.74;52.74
78337;BME280;67610;51.588;7.002;2023-10-13T10:06:58;99901.38;;;25.86;53.35
78337;BME280;67610;51.588;7.002;2023-10-13T10:09:28;99901.41;;;26.16;51.41
78337;BME280;67610;51.588;7.002;2023-10-13T10:15:06;99913.19;;;26.60;50.29
78337;BME280;67610;51.588;7.002;2023-10-13T10:17:42;99898.94;;;26.50;50.46
78337;BME280;67610;51.588;7.002;2023-10-13T10:20:08;99886.22;;;26.55;49.98
78337;BME280;67610;51.588;7.002;2023-10-13T10:22:43;99896.44;;;26.73;49.72
78337;BME280;67610;51.588;7.002;2023-10-13T10:25:13;99881.28;;;26.87;48.86
78337;BME280;67610;51.588;7.002;2023-10-13T10:27:56;99886.59;;;27.08;48.82
78337;BME280;67610;51.588;7.002;2023-10-13T10:30:29;99890.25;;;27.27;48.94
78337;BME280;67610;51.588;7.002;2023-10-13T10:32:56;99884.13;;;27.16;48.41
78337;BME280;67610;51.588;7.002;2023-10-13T10:35:25;99899.56;;;27.06;48.69
78337;BME280;67610;51.588;7.002;2023-10-13T10:38:19;99894.44;;;26.99;48.90
78337;BME280;67610;51.588;7.002;2023-10-13T10:41:02;99881.03;;;26.74;48.97
78337;BME280;67610;51.588;7.002;2023-10-13T10:43:30;99881.91;;;26.59;49.17
78337;BME280;67610;51.588;7.002;2023-10-13T10:46:21;99888.97;;;26.35;50.02
78337;BME280;67610;51.588;7.002;2023-10-13T10:48:50;99889.78;;;26.25;49.89
78337;BME280;67610;51.588;7.002;2023-10-13T10:51:22;99878.75;;;26.12;49.94
78337;BME280;67610;51.588;7.002;2023-10-13T10:53:52;99866.59;;;26.04;49.43
78337;BME280;67610;51.588;7.002;2023-10-13T10:56:22;99860.41;;;25.94;49.94
78337;BME280;67610;51.588;7.002;2023-10-13T10:59:05;99852.34;;;25.99;49.56
78337;BME280;67610;51.588;7.002;2023-10-13T11:01:44;99861.78;;;25.91;49.58
78337;BME280;67610;51.588;7.002;2023-10-13T11:04:16;99855.03;;;25.94;49.28
78337;BME280;67610;51.588;7.002;2023-10-13T11:06:49;99848.56;;;25.90;49.16
78337;BME280;67610;51.588;7.002;2023-10-13T11:11:55;99843.44;;;25.68;48.60
78337;BME280;67610;51.588;7.002;2023-10-13T11:14:23;99838.88;;;25.63;48.80
78337;BME280;67610;51.588;7.002;2023-10-13T11:16:50;99839.97;;;25.57;48.97
78337;BME280;67610;51.588;7.002;2023-10-13T11:19:34;99825.16;;;25.55;48.78
78337;BME280;67610;51.588;7.002;2023-10-13T11:22:13;99838.06;;;25.53;48.88
78337;BME280;67610;51.588;7.002;2023-10-13T11:24:58;99819.22;;;25.48;49.34
78337;BME280;67610;51.588;7.002;2023-10-13T11:27:31;99816.78;;;25.51;48.28
78337;BME280;67610;51.588;7.002;2023-10-13T11:30:29;99810.88;;;25.59;48.67
78337;BME280;67610;51.588;7.002;2023-10-13T11:33:05;99807.34;;;25.84;48.33
78337;BME280;67610;51.588;7.002;2023-10-13T11:35:35;99797.63;;;26.03;48.17
78337;BME280;67610;51.588;7.002;2023-10-13T11:38:14;99787.09;;;26.12;48.42
78337;BME280;67610;51.588;7.002;2023-10-13T11:40:40;99785.22;;;26.17;48.09
78337;BME280;67610;51.588;7.002;2023-10-13T11:43:12;99779.00;;;26.22;47.96
78337;BME280;67610;51.588;7.002;2023-10-13T11:45:50;99761.41;;;26.34;46.81
78337;BME280;67610;51.588;7.002;2023-10-13T11:48:34;99765.75;;;26.30;46.80
78337;BME280;67610;51.588;7.002;2023-10-13T11:51:03;99757.44;;;26.22;46.98
78337;BME280;67610;51.588;7.002;2023-10-13T11:53:32;99759.84;;;26.28;47.09
78337;BME280;67610;51.588;7.002;2023-10-13T11:55:59;99749.91;;;26.14;46.84
78337;BME280;67610;51.588;7.002;2023-10-13T11:58:24;99749.63;;;26.00;46.64
78337;BME280;67610;51.588;7.002;2023-10-13T12:00:50;99754.22;;;26.00;46.64
78337;BME280;67610;51.588;7.002;2023-10-13T12:03:33;99753.66;;;26.08;46.24
78337;BME280;67610;51.588;7.002;2023-10-13T12:06:18;99751.53;;;26.10;46.31
78337;BME280;67610;51.588;7.002;2023-10-13T12:09:06;99754.22;;;26.15;46.68
78337;BME280;67610;51.588;7.002;2023-10-13T12:11:41;99743.97;;;26.17;46.23
78337;BME280;67610;51.588;7.002;2023-10-13T12:14:17;99741.28;;;26.17;46.06
78337;BME280;67610;51.588;7.002;2023-10-13T12:16:48;99745.53;;;26.23;45.89
78337;BME280;67610;51.588;7.002;2023-10-13T12:19:25;99745.28;;;26.24;45.72
78337;BME280;67610;51.588;7.002;2023-10-13T12:21:56;99741.78;;;26.24;45.16
78337;BME280;67610;51.588;7.002;2023-10-13T12:27:02;99737.75;;;26.16;45.58
78337;BME280;67610;51.588;7.002;2023-10-13T12:29:28;99736.69;;;26.07;45.96
78337;BME280;67610;51.588;7.002;2023-10-13T12:31:59;99718.63;;;26.03;46.28
78337;BME280;67610;51.588;7.002;2023-10-13T12:34:37;99717.53;;;26.09;45.45
78337;BME280;67610;51.588;7.002;2023-10-13T12:37:32;99717.84;;;26.12;45.81
78337;BME280;67610;51.588;7.002;2023-10-13T12:40:12;99708.66;;;26.03;46.56
78337;BME280;67610;51.588;7.002;2023-10-13T12:42:56;99712.44;;;26.07;46.25
78337;BME280;67610;51.588;7.002;2023-10-13T12:45:41;99708.94;;;26.12;46.15
78337;BME280;67610;51.588;7.002;2023-10-13T12:48:25;99711.31;;;26.18;45.82
78337;BME280;67610;51.588;7.002;2023-10-13T12:51:09;99703.22;;;26.23;45.76
78337;BME280;67610;51.588;7.002;2023-10-13T12:53:53;99693.56;;;26.17;45.84
78337;BME280;67610;51.588;7.002;2023-10-13T12:56:20;99702.94;;;26.25;45.10
78337;BME280;67610;51.588;7.002;2023-10-13T12:58:51;99696.78;;;26.19;45.18
78337;BME280;67610;51.588;7.002;2023-10-13T13:01:21;99706.47;;;26.20;44.31
78337;BME280;67610;51.588;7.002;2023-10-13T13:03:47;99713.25;;;26.18;44.80
78337;BME280;67610;51.588;7.002;2023-10-13T13:06:20;99708.91;;;26.17;44.82
78337;BME280;67610;51.588;7.002;2023-10-13T13:08:55;99706.72;;;26.24;44.51
78337;BME280;67610;51.588;7.002;2023-10-13T13:11:22;99704.53;;;26.31;43.79
78337;BME280;67610;51.588;7.002;2023-10-13T13:13:47;99713.69;;;26.35;43.53
78337;BME280;67610;51.588;7.002;2023-10-13T13:16:14;99718.03;;;26.31;43.60
78337;BME280;67610;51.588;7.002;2023-10-13T13:18:39;99709.44;;;26.24;44.01
78337;BME280;67610;51.588;7.002;2023-10-13T13:21:05;99708.06;;;26.26;43.83
78337;BME280;67610;51.588;7.002;2023-10-13T13:23:32;99707.03;;;26.22;44.00
78337;BME280;67610;51.588;7.002;2023-10-13T13:25:59;99698.38;;;26.20;44.06
78337;BME280;67610;51.588;7.002;2023-10-13T13:28:25;99692.75;;;26.17;43.23
78337;BME280;67610;51.588;7.002;2023-10-13T13:30:54;99700.84;;;26.12;43.95
78337;BME280;67610;51.588;7.002;2023-10-13T13:33:19;99695.47;;;26.12;43.92
78337;BME280;67610;51.588;7.002;2023-10-13T13:35:49;99694.91;;;26.15;43.42
78337;BME280;67610;51.588;7.002;2023-10-13T13:38:14;99698.69;;;26.04;43.88
78337;BME280;67610;51.588;7.002;2023-10-13T13:40:47;99688.47;;;26.01;43.63
78337;BME280;67610;51.588;7.002;2023-10-13T13:43:15;99698.16;;;26.02;44.30
78337;BME280;67610;51.588;7.002;2023-10-13T13:45:57;99694.41;;;25.98;44.25
78337;BME280;67610;51.588;7.002;2023-10-13T13:48:26;99692.00;;;25.96;44.24
78337;BME280;67610;51.588;7.002;2023-10-13T13:50:52;99691.47;;;25.89;43.74
78337;BME280;67610;51.588;7.002;2023-10-13T13:53:21;99687.44;;;25.87;44.00
78337;BME280;67610;51.588;7.002;2023-10-13T13:55:52;99676.94;;;25.85;43.32
78337;BME280;67610;51.588;7.002;2023-10-13T13:58:18;99680.47;;;25.81;43.65